sensor_id;sensor_type;location;lat;lon;timestamp;P1;durP1;ratioP1;P2;durP2;ratioP2
4676;SDS011;2352;48.180;11.478;2023-08-21T00:02:01;7.95;;;7.45;;
4676;SDS011;2352;48.180;11.478;2023-08-21T00:05:06;8.85;;;8.30;;
4676;SDS011;2352;48.180;11.478;2023-08-21T00:08:10;8.32;;;7.82;;
4676;SDS011;2352;48.180;11.478;2023-08-21T00:11:13;8.68;;;8.18;;
4676;SDS011;2352;48.180;11.478;2023-08-21T00:14:17;8.68;;;7.78;;
4676;SDS011;2352;48.180;11.478;2023-08-21T00:17:20;8.15;;;7.55;;
4676;SDS011;2352;48.180;11.478;2023-08-21T00:20:23;7.95;;;7.55;;
4676;SDS011;2352;48.180;11.478;2023-08-21T00:23:26;8.52;;;8.02;;
4676;SDS011;2352;48.180;11.478;2023-08-21T00:26:28;8.30;;;7.80;;
4676;SDS011;2352;48.180;11.478;2023-08-21T00:29:33;8.25;;;7.82;;
4676;SDS011;2352;48.180;11.478;2023-08-21T00:32:36;8.13;;;7.63;;
4676;SDS011;2352;48.180;11.478;2023-08-21T00:35:39;7.70;;;7.30;;
4676;SDS011;2352;48.180;11.478;2023-08-21T00:38:42;8.95;;;8.45;;
4676;SDS011;2352;48.180;11.478;2023-08-21T00:41:45;8.90;;;8.40;;
4676;SDS011;2352;48.180;11.478;2023-08-21T00:44:49;8.45;;;7.95;;
4676;SDS011;2352;48.180;11.478;2023-08-21T00:47:52;7.63;;;7.20;;
4676;SDS011;2352;48.180;11.478;2023-08-21T00:50:55;7.60;;;7.20;;
4676;SDS011;2352;48.180;11.478;2023-08-21T00:53:58;8.30;;;7.70;;
4676;SDS011;2352;48.180;11.478;2023-08-21T00:57:01;8.23;;;7.75;;
4676;SDS011;2352;48.180;11.478;2023-08-21T01:00:06;8.40;;;7.90;;
4676;SDS011;2352;48.180;11.478;2023-08-21T01:03:11;8.65;;;8.15;;
4676;SDS011;2352;48.180;11.478;2023-08-21T01:06:14;8.15;;;7.55;;
4676;SDS011;2352;48.180;11.478;2023-08-21T01:09:17;8.30;;;7.47;;
4676;SDS011;2352;48.180;11.478;2023-08-21T01:12:29;8.35;;;7.88;;
4676;SDS011;2352;48.180;11.478;2023-08-21T01:15:38;8.60;;;8.10;;
4676;SDS011;2352;48.180;11.478;2023-08-21T01:18:42;8.67;;;8.17;;
4676;SDS011;2352;48.180;11.478;2023-08-21T01:21:47;8.35;;;7.90;;
4676;SDS011;2352;48.180;11.478;2023-08-21T01:24:51;8.10;;;7.68;;
4676;SDS011;2352;48.180;11.478;2023-08-21T01:27:54;8.20;;;7.70;;
4676;SDS011;2352;48.180;11.478;2023-08-21T01:30:59;8.07;;;7.47;;
4676;SDS011;2352;48.180;11.478;2023-08-21T01:34:10;7.45;;;6.95;;
4676;SDS011;2352;48.180;11.478;2023-08-21T01:37:17;7.72;;;7.30;;
4676;SDS011;2352;48.180;11.478;2023-08-21T01:40:22;7.10;;;6.70;;
4676;SDS011;2352;48.180;11.478;2023-08-21T01:43:25;7.80;;;7.30;;
4676;SDS011;2352;48.180;11.478;2023-08-21T01:46:28;7.97;;;7.47;;
4676;SDS011;2352;48.180;11.478;2023-08-21T01:49:31;7.63;;;7.20;;
4676;SDS011;2352;48.180;11.478;2023-08-21T01:52:34;7.43;;;7.03;;
4676;SDS011;2352;48.180;11.478;2023-08-21T01:55:38;6.93;;;6.53;;
4676;SDS011;2352;48.180;11.478;2023-08-21T01:58:41;7.07;;;6.68;;
4676;SDS011;2352;48.180;11.478;2023-08-21T02:01:44;6.87;;;6.47;;
4676;SDS011;2352;48.180;11.478;2023-08-21T02:04:47;7.22;;;6.72;;
4676;SDS011;2352;48.180;11.478;2023-08-21T02:07:50;7.03;;;6.53;;
4676;SDS011;2352;48.180;11.478;2023-08-21T02:10:54;7.03;;;6.63;;
4676;SDS011;2352;48.180;11.478;2023-08-21T02:13:57;7.15;;;6.75;;
4676;SDS011;2352;48.180;11.478;2023-08-21T02:17:00;7.20;;;6.82;;
4676;SDS011;2352;48.180;11.478;2023-08-21T02:20:04;7.45;;;6.95;;
4676;SDS011;2352;48.180;11.478;2023-08-21T02:23:07;7.05;;;6.65;;
4676;SDS011;2352;48.180;11.478;2023-08-21T02:26:12;6.70;;;6.30;;
4676;SDS011;2352;48.180;11.478;2023-08-21T02:29:14;6.68;;;6.28;;
4676;SDS011;2352;48.180;11.478;2023-08-21T02:32:17;7.43;;;6.93;;
4676;SDS011;2352;48.180;11.478;2023-08-21T02:35:20;6.57;;;6.18;;
4676;SDS011;2352;48.180;11.478;2023-08-21T02:38:23;7.20;;;6.80;;
4676;SDS011;2352;48.180;11.478;2023-08-21T02:41:27;7.05;;;6.45;;
4676;SDS011;2352;48.180;11.478;2023-08-21T02:44:30;7.30;;;6.90;;
4676;SDS011;2352;48.180;11.478;2023-08-21T02:47:33;7.00;;;6.60;;
4676;SDS011;2352;48.180;11.478;2023-08-21T02:50:37;6.88;;;6.50;;
4676;SDS011;2352;48.180;11.478;2023-08-21T02:53:40;7.32;;;6.82;;
4676;SDS011;2352;48.180;11.478;2023-08-21T02:56:44;6.82;;;6.43;;
4676;SDS011;2352;48.180;11.478;2023-08-21T02:59:47;7.15;;;6.75;;
4676;SDS011;2352;48.180;11.478;2023-08-21T03:02:49;7.63;;;7.13;;
4676;SDS011;2352;48.180;11.478;2023-08-21T03:05:52;7.32;;;6.93;;
4676;SDS011;2352;48.180;11.478;2023-08-21T03:08:55;7.40;;;7.00;;
4676;SDS011;2352;48.180;11.478;2023-08-21T03:11:59;7.22;;;6.82;;
4676;SDS011;2352;48.180;11.478;2023-08-21T03:15:02;7.65;;;7.22;;
4676;SDS011;2352;48.180;11.478;2023-08-21T03:18:06;7.65;;;7.15;;
4676;SDS011;2352;48.180;11.478;2023-08-21T03:21:08;7.88;;;7.38;;
4676;SDS011;2352;48.180;11.478;2023-08-21T03:24:11;7.27;;;6.87;;
4676;SDS011;2352;48.180;11.478;2023-08-21T03:27:16;7.50;;;7.00;;
4676;SDS011;2352;48.180;11.478;2023-08-21T03:30:20;7.32;;;6.93;;
4676;SDS011;2352;48.180;11.478;2023-08-21T03:33:23;7.73;;;7.13;;
4676;SDS011;2352;48.180;11.478;2023-08-21T03:36:26;6.93;;;6.45;;
4676;SDS011;2352;48.180;11.478;2023-08-21T03:39:32;7.57;;;7.07;;
4676;SDS011;2352;48.180;11.478;2023-08-21T03:42:37;7.45;;;7.03;;
4676;SDS011;2352;48.180;11.478;2023-08-21T03:45:40;7.28;;;6.85;;
4676;SDS011;2352;48.180;11.478;2023-08-21T03:48:43;7.30;;;6.75;;
4676;SDS011;2352;48.180;11.478;2023-08-21T03:51:46;7.67;;;7.20;;
4676;SDS011;2352;48.180;11.478;2023-08-21T03:54:49;8.15;;;7.65;;
4676;SDS011;2352;48.180;11.478;2023-08-21T03:57:53;7.53;;;7.13;;
4676;SDS011;2352;48.180;11.478;2023-08-21T04:00:56;7.45;;;6.88;;
4676;SDS011;2352;48.180;11.478;2023-08-21T04:03:58;7.57;;;7.07;;
4676;SDS011;2352;48.180;11.478;2023-08-21T04:07:01;7.50;;;7.10;;
4676;SDS011;2352;48.180;11.478;2023-08-21T04:10:05;7.15;;;6.65;;
4676;SDS011;2352;48.180;11.478;2023-08-21T04:13:09;7.45;;;7.05;;
4676;SDS011;2352;48.180;11.478;2023-08-21T04:16:12;7.47;;;6.97;;
4676;SDS011;2352;48.180;11.478;2023-08-21T04:19:16;7.78;;;7.38;;
4676;SDS011;2352;48.180;11.478;2023-08-21T04:22:19;7.53;;;7.10;;
4676;SDS011;2352;48.180;11.478;2023-08-21T04:25:22;7.57;;;7.13;;
4676;SDS011;2352;48.180;11.478;2023-08-21T04:28:26;8.18;;;7.68;;
4676;SDS011;2352;48.180;11.478;2023-08-21T04:31:29;7.63;;;7.13;;
4676;SDS011;2352;48.180;11.478;2023-08-21T04:34:32;7.13;;;6.73;;
4676;SDS011;2352;48.180;11.478;2023-08-21T04:37:37;7.77;;;7.27;;
4676;SDS011;2352;48.180;11.478;2023-08-21T04:40:44;7.38;;;6.97;;
4676;SDS011;2352;48.180;11.478;2023-08-21T04:43:49;7.45;;;6.95;;
4676;SDS011;2352;48.180;11.478;2023-08-21T04:46:51;7.90;;;7.50;;
4676;SDS011;2352;48.180;11.478;2023-08-21T04:49:55;7.53;;;7.03;;
4676;SDS011;2352;48.180;11.478;2023-08-21T04:52:58;7.07;;;6.70;;
4676;SDS011;2352;48.180;11.478;2023-08-21T04:56:01;7.22;;;6.78;;
4676;SDS011;2352;48.180;11.478;2023-08-21T04:59:05;7.30;;;6.80;;
4676;SDS011;2352;48.180;11.478;2023-08-21T05:02:09;7.68;;;7.28;;
4676;SDS011;2352;48.180;11.478;2023-08-21T05:05:12;7.95;;;7.45;;
4676;SDS011;2352;48.180;11.478;2023-08-21T05:08:14;7.53;;;7.03;;
4676;SDS011;2352;48.180;11.478;2023-08-21T05:11:17;7.75;;;7.35;;
4676;SDS011;2352;48.180;11.478;2023-08-21T05:14:22;7.65;;;7.18;;
4676;SDS011;2352;48.180;11.478;2023-08-21T05:17:24;7.72;;;7.32;;
4676;SDS011;2352;48.180;11.478;2023-08-21T05:20:28;7.55;;;7.05;;
4676;SDS011;2352;48.180;11.478;2023-08-21T05:23:30;7.63;;;7.05;;
4676;SDS011;2352;48.180;11.478;2023-08-21T05:26:35;7.63;;;7.13;;
4676;SDS011;2352;48.180;11.478;2023-08-21T05:29:39;7.65;;;7.25;;
4676;SDS011;2352;48.180;11.478;2023-08-21T05:32:42;8.15;;;7.47;;
4676;SDS011;2352;48.180;11.478;2023-08-21T05:35:44;7.38;;;6.88;;
4676;SDS011;2352;48.180;11.478;2023-08-21T05:38:47;7.88;;;7.28;;
4676;SDS011;2352;48.180;11.478;2023-08-21T05:41:52;8.68;;;7.97;;
4676;SDS011;2352;48.180;11.478;2023-08-21T05:44:56;8.30;;;6.97;;
4676;SDS011;2352;48.180;11.478;2023-08-21T05:47:59;7.82;;;7.32;;
4676;SDS011;2352;48.180;11.478;2023-08-21T05:51:02;7.85;;;7.35;;
4676;SDS011;2352;48.180;11.478;2023-08-21T05:54:05;7.47;;;6.87;;
4676;SDS011;2352;48.180;11.478;2023-08-21T05:57:08;7.97;;;7.38;;
4676;SDS011;2352;48.180;11.478;2023-08-21T06:00:13;7.45;;;6.85;;
4676;SDS011;2352;48.180;11.478;2023-08-21T06:03:17;12.70;;;7.10;;
4676;SDS011;2352;48.180;11.478;2023-08-21T06:06:20;7.93;;;7.43;;
4676;SDS011;2352;48.180;11.478;2023-08-21T06:09:23;7.80;;;7.10;;
4676;SDS011;2352;48.180;11.478;2023-08-21T06:12:26;8.50;;;7.67;;
4676;SDS011;2352;48.180;11.478;2023-08-21T06:15:30;7.88;;;7.22;;
4676;SDS011;2352;48.180;11.478;2023-08-21T06:18:33;7.93;;;7.43;;
4676;SDS011;2352;48.180;11.478;2023-08-21T06:21:36;7.97;;;7.27;;
4676;SDS011;2352;48.180;11.478;2023-08-21T06:24:39;7.28;;;6.78;;
4676;SDS011;2352;48.180;11.478;2023-08-21T06:27:41;7.77;;;7.20;;
4676;SDS011;2352;48.180;11.478;2023-08-21T06:31:00;7.57;;;7.07;;
4676;SDS011;2352;48.180;11.478;2023-08-21T06:34:04;8.38;;;7.78;;
4676;SDS011;2352;48.180;11.478;2023-08-21T06:37:07;8.55;;;7.95;;
4676;SDS011;2352;48.180;11.478;2023-08-21T06:40:10;8.77;;;8.07;;
4676;SDS011;2352;48.180;11.478;2023-08-21T06:43:13;7.95;;;7.43;;
4676;SDS011;2352;48.180;11.478;2023-08-21T06:46:18;8.02;;;7.53;;
4676;SDS011;2352;48.180;11.478;2023-08-21T06:49:20;7.53;;;6.93;;
4676;SDS011;2352;48.180;11.478;2023-08-21T06:52:24;9.27;;;8.50;;
4676;SDS011;2352;48.180;11.478;2023-08-21T06:55:27;8.57;;;7.70;;
4676;SDS011;2352;48.180;11.478;2023-08-21T06:58:30;8.25;;;7.68;;
4676;SDS011;2352;48.180;11.478;2023-08-21T07:01:34;8.33;;;7.40;;
4676;SDS011;2352;48.180;11.478;2023-08-21T07:04:37;8.50;;;7.83;;
4676;SDS011;2352;48.180;11.478;2023-08-21T07:07:40;9.05;;;8.20;;
4676;SDS011;2352;48.180;11.478;2023-08-21T07:10:43;7.70;;;7.18;;
4676;SDS011;2352;48.180;11.478;2023-08-21T07:13:46;7.63;;;7.13;;
4676;SDS011;2352;48.180;11.478;2023-08-21T07:16:50;8.30;;;7.80;;
4676;SDS011;2352;48.180;11.478;2023-08-21T07:19:53;7.85;;;7.35;;
4676;SDS011;2352;48.180;11.478;2023-08-21T07:22:56;8.52;;;7.88;;
4676;SDS011;2352;48.180;11.478;2023-08-21T07:25:58;8.95;;;8.20;;
4676;SDS011;2352;48.180;11.478;2023-08-21T07:29:02;7.38;;;6.97;;
4676;SDS011;2352;48.180;11.478;2023-08-21T07:32:07;8.25;;;7.45;;
4676;SDS011;2352;48.180;11.478;2023-08-21T07:35:09;8.73;;;8.13;;
4676;SDS011;2352;48.180;11.478;2023-08-21T07:38:12;9.00;;;8.32;;
4676;SDS011;2352;48.180;11.478;2023-08-21T07:41:15;7.88;;;7.28;;
4676;SDS011;2352;48.180;11.478;2023-08-21T07:44:18;7.87;;;7.47;;
4676;SDS011;2352;48.180;11.478;2023-08-21T07:47:22;8.38;;;7.78;;
4676;SDS011;2352;48.180;11.478;2023-08-21T07:50:25;8.68;;;7.85;;
4676;SDS011;2352;48.180;11.478;2023-08-21T07:53:28;7.80;;;7.40;;
4676;SDS011;2352;48.180;11.478;2023-08-21T07:56:32;7.10;;;6.65;;
4676;SDS011;2352;48.180;11.478;2023-08-21T07:59:36;8.52;;;7.72;;
4676;SDS011;2352;48.180;11.478;2023-08-21T08:02:41;7.65;;;7.15;;
4676;SDS011;2352;48.180;11.478;2023-08-21T08:05:44;7.65;;;7.05;;
4676;SDS011;2352;48.180;11.478;2023-08-21T08:08:55;7.40;;;6.88;;
4676;SDS011;2352;48.180;11.478;2023-08-21T08:11:59;7.47;;;6.88;;
4676;SDS011;2352;48.180;11.478;2023-08-21T08:15:02;7.83;;;7.23;;
4676;SDS011;2352;48.180;11.478;2023-08-21T08:18:10;7.85;;;7.25;;
4676;SDS011;2352;48.180;11.478;2023-08-21T08:21:13;6.75;;;6.35;;
4676;SDS011;2352;48.180;11.478;2023-08-21T08:24:19;6.80;;;6.25;;
4676;SDS011;2352;48.180;11.478;2023-08-21T08:27:22;7.63;;;7.10;;
4676;SDS011;2352;48.180;11.478;2023-08-21T08:30:25;7.38;;;6.72;;
4676;SDS011;2352;48.180;11.478;2023-08-21T08:33:30;7.10;;;6.40;;
4676;SDS011;2352;48.180;11.478;2023-08-21T08:36:33;7.05;;;6.57;;
4676;SDS011;2352;48.180;11.478;2023-08-21T08:39:36;7.15;;;5.95;;
4676;SDS011;2352;48.180;11.478;2023-08-21T08:42:39;6.20;;;5.65;;
4676;SDS011;2352;48.180;11.478;2023-08-21T08:45:43;6.05;;;5.65;;
4676;SDS011;2352;48.180;11.478;2023-08-21T08:48:51;5.90;;;5.60;;
4676;SDS011;2352;48.180;11.478;2023-08-21T08:51:54;6.60;;;6.00;;
4676;SDS011;2352;48.180;11.478;2023-08-21T08:54:57;5.63;;;5.22;;
4676;SDS011;2352;48.180;11.478;2023-08-21T08:58:00;6.10;;;5.60;;
4676;SDS011;2352;48.180;11.478;2023-08-21T09:01:03;6.97;;;6.30;;
4676;SDS011;2352;48.180;11.478;2023-08-21T09:04:08;6.22;;;5.75;;
4676;SDS011;2352;48.180;11.478;2023-08-21T09:07:11;6.85;;;6.15;;
4676;SDS011;2352;48.180;11.478;2023-08-21T09:10:15;6.47;;;6.07;;
4676;SDS011;2352;48.180;11.478;2023-08-21T09:13:18;6.65;;;6.20;;
4676;SDS011;2352;48.180;11.478;2023-08-21T09:16:22;6.63;;;6.18;;
4676;SDS011;2352;48.180;11.478;2023-08-21T09:19:28;6.20;;;5.60;;
4676;SDS011;2352;48.180;11.478;2023-08-21T09:22:30;6.03;;;5.63;;
4676;SDS011;2352;48.180;11.478;2023-08-21T09:25:34;6.18;;;5.88;;
4676;SDS011;2352;48.180;11.478;2023-08-21T09:28:38;5.97;;;5.50;;
4676;SDS011;2352;48.180;11.478;2023-08-21T09:31:41;5.68;;;5.35;;
4676;SDS011;2352;48.180;11.478;2023-08-21T09:34:48;5.60;;;5.30;;
4676;SDS011;2352;48.180;11.478;2023-08-21T09:37:51;5.37;;;5.07;;
4676;SDS011;2352;48.180;11.478;2023-08-21T09:40:54;6.53;;;6.03;;
4676;SDS011;2352;48.180;11.478;2023-08-21T09:43:58;6.55;;;6.05;;
4676;SDS011;2352;48.180;11.478;2023-08-21T09:47:02;6.20;;;5.70;;
4676;SDS011;2352;48.180;11.478;2023-08-21T09:50:06;5.73;;;5.23;;
4676;SDS011;2352;48.180;11.478;2023-08-21T09:53:10;6.00;;;5.50;;
4676;SDS011;2352;48.180;11.478;2023-08-21T09:56:14;6.20;;;5.70;;
4676;SDS011;2352;48.180;11.478;2023-08-21T09:59:19;7.43;;;5.53;;
4676;SDS011;2352;48.180;11.478;2023-08-21T10:02:23;6.10;;;5.60;;
4676;SDS011;2352;48.180;11.478;2023-08-21T10:05:28;6.10;;;5.73;;
4676;SDS011;2352;48.180;11.478;2023-08-21T10:08:32;5.60;;;5.30;;
4676;SDS011;2352;48.180;11.478;2023-08-21T10:11:39;5.07;;;4.77;;
4676;SDS011;2352;48.180;11.478;2023-08-21T10:14:43;5.72;;;5.35;;
4676;SDS011;2352;48.180;11.478;2023-08-21T10:17:46;4.80;;;4.60;;
4676;SDS011;2352;48.180;11.478;2023-08-21T10:20:50;5.43;;;5.05;;
4676;SDS011;2352;48.180;11.478;2023-08-21T10:23:54;5.10;;;4.65;;
4676;SDS011;2352;48.180;11.478;2023-08-21T10:26:58;4.97;;;4.68;;
4676;SDS011;2352;48.180;11.478;2023-08-21T10:30:06;4.20;;;4.00;;
4676;SDS011;2352;48.180;11.478;2023-08-21T10:33:15;4.50;;;4.28;;
4676;SDS011;2352;48.180;11.478;2023-08-21T10:39:55;5.15;;;4.80;;
4676;SDS011;2352;48.180;11.478;2023-08-21T10:42:58;4.72;;;4.43;;
4676;SDS011;2352;48.180;11.478;2023-08-21T10:46:01;5.22;;;4.93;;
4676;SDS011;2352;48.180;11.478;2023-08-21T10:49:05;5.03;;;4.67;;
4676;SDS011;2352;48.180;11.478;2023-08-21T10:52:08;4.40;;;4.18;;
4676;SDS011;2352;48.180;11.478;2023-08-21T10:55:13;4.55;;;4.25;;
4676;SDS011;2352;48.180;11.478;2023-08-21T10:58:17;4.75;;;4.35;;
4676;SDS011;2352;48.180;11.478;2023-08-21T11:01:19;4.32;;;4.03;;
4676;SDS011;2352;48.180;11.478;2023-08-21T11:04:22;3.83;;;3.63;;
4676;SDS011;2352;48.180;11.478;2023-08-21T11:07:25;4.13;;;3.75;;
4676;SDS011;2352;48.180;11.478;2023-08-21T11:10:31;4.93;;;4.63;;
4676;SDS011;2352;48.180;11.478;2023-08-21T11:13:34;5.30;;;4.50;;
4676;SDS011;2352;48.180;11.478;2023-08-21T11:16:37;5.20;;;4.80;;
4676;SDS011;2352;48.180;11.478;2023-08-21T11:19:41;4.90;;;4.60;;
4676;SDS011;2352;48.180;11.478;2023-08-21T11:22:44;4.93;;;4.53;;
4676;SDS011;2352;48.180;11.478;2023-08-21T11:25:48;5.15;;;4.85;;
4676;SDS011;2352;48.180;11.478;2023-08-21T11:28:51;4.57;;;4.27;;
4676;SDS011;2352;48.180;11.478;2023-08-21T11:31:54;4.45;;;4.15;;
4676;SDS011;2352;48.180;11.478;2023-08-21T11:34:57;5.17;;;4.77;;
4676;SDS011;2352;48.180;11.478;2023-08-21T11:38:00;4.80;;;4.30;;
4676;SDS011;2352;48.180;11.478;2023-08-21T11:41:05;4.32;;;4.13;;
4676;SDS011;2352;48.180;11.478;2023-08-21T11:44:08;4.53;;;4.22;;
4676;SDS011;2352;48.180;11.478;2023-08-21T11:47:11;5.20;;;4.25;;
4676;SDS011;2352;48.180;11.478;2023-08-21T11:50:15;4.43;;;4.13;;
4676;SDS011;2352;48.180;11.478;2023-08-21T11:53:29;4.63;;;4.32;;
4676;SDS011;2352;48.180;11.478;2023-08-21T11:56:39;4.07;;;3.83;;
4676;SDS011;2352;48.180;11.478;2023-08-21T11:59:49;4.30;;;4.00;;
4676;SDS011;2352;48.180;11.478;2023-08-21T12:02:56;4.37;;;3.87;;
4676;SDS011;2352;48.180;11.478;2023-08-21T12:06:00;3.80;;;3.60;;
4676;SDS011;2352;48.180;11.478;2023-08-21T12:09:07;3.60;;;3.40;;
4676;SDS011;2352;48.180;11.478;2023-08-21T12:12:11;4.60;;;3.78;;
4676;SDS011;2352;48.180;11.478;2023-08-21T12:15:14;4.35;;;4.03;;
4676;SDS011;2352;48.180;11.478;2023-08-21T12:18:17;4.40;;;4.10;;
4676;SDS011;2352;48.180;11.478;2023-08-21T12:21:20;5.10;;;4.23;;
4676;SDS011;2352;48.180;11.478;2023-08-21T12:24:23;4.53;;;4.22;;
4676;SDS011;2352;48.180;11.478;2023-08-21T12:27:28;5.83;;;4.23;;
4676;SDS011;2352;48.180;11.478;2023-08-21T12:30:30;5.07;;;4.68;;
4676;SDS011;2352;48.180;11.478;2023-08-21T12:33:33;4.30;;;4.00;;
4676;SDS011;2352;48.180;11.478;2023-08-21T12:36:36;4.25;;;3.95;;
4676;SDS011;2352;48.180;11.478;2023-08-21T12:39:39;4.40;;;4.10;;
4676;SDS011;2352;48.180;11.478;2023-08-21T12:42:43;4.60;;;4.30;;
4676;SDS011;2352;48.180;11.478;2023-08-21T12:45:46;4.78;;;4.30;;
4676;SDS011;2352;48.180;11.478;2023-08-21T12:48:49;4.22;;;3.95;;
4676;SDS011;2352;48.180;11.478;2023-08-21T12:51:52;4.55;;;4.25;;
4676;SDS011;2352;48.180;11.478;2023-08-21T12:54:56;3.88;;;3.42;;
4676;SDS011;2352;48.180;11.478;2023-08-21T12:58:01;3.40;;;3.20;;
4676;SDS011;2352;48.180;11.478;2023-08-21T13:01:04;3.90;;;3.60;;
4676;SDS011;2352;48.180;11.478;2023-08-21T13:04:08;5.55;;;3.80;;
4676;SDS011;2352;48.180;11.478;2023-08-21T13:07:11;3.75;;;3.45;;
4676;SDS011;2352;48.180;11.478;2023-08-21T13:10:13;4.10;;;3.80;;
4676;SDS011;2352;48.180;11.478;2023-08-21T13:13:18;4.87;;;4.27;;
4676;SDS011;2352;48.180;11.478;2023-08-21T13:16:20;4.40;;;4.00;;
4676;SDS011;2352;48.180;11.478;2023-08-21T13:19:23;4.40;;;4.10;;
4676;SDS011;2352;48.180;11.478;2023-08-21T13:22:26;4.33;;;3.93;;
4676;SDS011;2352;48.180;11.478;2023-08-21T13:25:29;4.27;;;3.97;;
4676;SDS011;2352;48.180;11.478;2023-08-21T13:28:33;4.50;;;3.90;;
4676;SDS011;2352;48.180;11.478;2023-08-21T13:31:36;3.92;;;3.60;;
4676;SDS011;2352;48.180;11.478;2023-08-21T13:34:39;3.72;;;3.53;;
4676;SDS011;2352;48.180;11.478;2023-08-21T13:37:42;3.67;;;3.38;;
4676;SDS011;2352;48.180;11.478;2023-08-21T13:40:45;5.70;;;3.90;;
4676;SDS011;2352;48.180;11.478;2023-08-21T13:43:49;4.65;;;3.80;;
4676;SDS011;2352;48.180;11.478;2023-08-21T13:46:55;5.60;;;5.13;;
4676;SDS011;2352;48.180;11.478;2023-08-21T13:49:58;4.90;;;4.28;;
4676;SDS011;2352;48.180;11.478;2023-08-21T13:53:01;4.45;;;4.10;;
4676;SDS011;2352;48.180;11.478;2023-08-21T13:56:04;4.45;;;4.05;;
4676;SDS011;2352;48.180;11.478;2023-08-21T13:59:08;4.00;;;3.70;;
4676;SDS011;2352;48.180;11.478;2023-08-21T14:02:11;4.20;;;3.90;;
4676;SDS011;2352;48.180;11.478;2023-08-21T14:05:14;4.78;;;4.38;;
4676;SDS011;2352;48.180;11.478;2023-08-21T14:08:17;3.80;;;3.60;;
4676;SDS011;2352;48.180;11.478;2023-08-21T14:11:20;4.47;;;4.18;;
4676;SDS011;2352;48.180;11.478;2023-08-21T14:14:24;4.25;;;3.88;;
4676;SDS011;2352;48.180;11.478;2023-08-21T14:17:27;3.85;;;3.63;;
4676;SDS011;2352;48.180;11.478;2023-08-21T14:20:30;4.40;;;4.20;;
4676;SDS011;2352;48.180;11.478;2023-08-21T14:23:33;4.45;;;3.67;;
4676;SDS011;2352;48.180;11.478;2023-08-21T14:26:36;3.88;;;3.65;;
4676;SDS011;2352;48.180;11.478;2023-08-21T14:29:43;4.10;;;3.83;;
4676;SDS011;2352;48.180;11.478;2023-08-21T14:32:46;4.78;;;4.38;;
4676;SDS011;2352;48.180;11.478;2023-08-21T14:35:49;4.35;;;4.05;;
4676;SDS011;2352;48.180;11.478;2023-08-21T14:38:51;4.55;;;4.10;;
4676;SDS011;2352;48.180;11.478;2023-08-21T14:41:54;4.18;;;3.83;;
4676;SDS011;2352;48.180;11.478;2023-08-21T14:44:59;4.28;;;3.97;;
4676;SDS011;2352;48.180;11.478;2023-08-21T14:48:02;4.47;;;4.07;;
4676;SDS011;2352;48.180;11.478;2023-08-21T14:51:06;4.10;;;3.80;;
4676;SDS011;2352;48.180;11.478;2023-08-21T14:54:09;4.30;;;4.00;;
4676;SDS011;2352;48.180;11.478;2023-08-21T14:57:12;4.60;;;4.20;;
4676;SDS011;2352;48.180;11.478;2023-08-21T15:00:16;3.95;;;3.72;;
4676;SDS011;2352;48.180;11.478;2023-08-21T15:03:19;4.35;;;3.95;;
4676;SDS011;2352;48.180;11.478;2023-08-21T15:06:23;4.50;;;3.90;;
4676;SDS011;2352;48.180;11.478;2023-08-21T15:09:26;4.85;;;4.55;;
4676;SDS011;2352;48.180;11.478;2023-08-21T15:12:29;4.57;;;4.13;;
4676;SDS011;2352;48.180;11.478;2023-08-21T15:15:33;5.05;;;4.20;;
4676;SDS011;2352;48.180;11.478;2023-08-21T15:18:36;4.87;;;4.57;;
4676;SDS011;2352;48.180;11.478;2023-08-21T15:21:39;3.88;;;3.67;;
4676;SDS011;2352;48.180;11.478;2023-08-21T15:24:43;5.47;;;4.30;;
4676;SDS011;2352;48.180;11.478;2023-08-21T15:27:46;4.40;;;4.07;;
4676;SDS011;2352;48.180;11.478;2023-08-21T15:30:50;4.40;;;4.00;;
4676;SDS011;2352;48.180;11.478;2023-08-21T15:33:53;4.65;;;4.40;;
4676;SDS011;2352;48.180;11.478;2023-08-21T15:36:55;5.07;;;4.53;;
4676;SDS011;2352;48.180;11.478;2023-08-21T15:39:58;5.03;;;4.57;;
4676;SDS011;2352;48.180;11.478;2023-08-21T15:43:02;4.68;;;4.38;;
4676;SDS011;2352;48.180;11.478;2023-08-21T15:46:09;5.55;;;4.30;;
4676;SDS011;2352;48.180;11.478;2023-08-21T15:49:12;4.32;;;3.92;;
4676;SDS011;2352;48.180;11.478;2023-08-21T15:52:15;5.32;;;4.35;;
4676;SDS011;2352;48.180;11.478;2023-08-21T15:55:18;4.97;;;4.63;;
4676;SDS011;2352;48.180;11.478;2023-08-21T15:58:21;4.53;;;4.18;;
4676;SDS011;2352;48.180;11.478;2023-08-21T16:01:25;4.05;;;3.75;;
4676;SDS011;2352;48.180;11.478;2023-08-21T16:04:28;4.85;;;4.32;;
4676;SDS011;2352;48.180;11.478;2023-08-21T16:07:31;4.35;;;4.05;;
4676;SDS011;2352;48.180;11.478;2023-08-21T16:10:35;6.03;;;4.10;;
4676;SDS011;2352;48.180;11.478;2023-08-21T16:13:38;4.78;;;4.45;;
4676;SDS011;2352;48.180;11.478;2023-08-21T16:16:42;5.07;;;4.57;;
4676;SDS011;2352;48.180;11.478;2023-08-21T16:19:46;4.53;;;4.20;;
4676;SDS011;2352;48.180;11.478;2023-08-21T16:22:48;4.45;;;4.15;;
4676;SDS011;2352;48.180;11.478;2023-08-21T16:25:52;5.28;;;4.55;;
4676;SDS011;2352;48.180;11.478;2023-08-21T16:28:55;5.03;;;4.63;;
4676;SDS011;2352;48.180;11.478;2023-08-21T16:32:00;4.93;;;4.10;;
4676;SDS011;2352;48.180;11.478;2023-08-21T16:35:03;4.32;;;4.05;;
4676;SDS011;2352;48.180;11.478;2023-08-21T16:38:07;4.45;;;4.15;;
4676;SDS011;2352;48.180;11.478;2023-08-21T16:41:10;4.45;;;4.05;;
4676;SDS011;2352;48.180;11.478;2023-08-21T16:44:12;4.90;;;4.32;;
4676;SDS011;2352;48.180;11.478;2023-08-21T16:47:19;4.60;;;4.30;;
4676;SDS011;2352;48.180;11.478;2023-08-21T16:50:23;4.75;;;4.30;;
4676;SDS011;2352;48.180;11.478;2023-08-21T16:53:26;4.60;;;4.35;;
4676;SDS011;2352;48.180;11.478;2023-08-21T16:56:29;4.05;;;3.83;;
4676;SDS011;2352;48.180;11.478;2023-08-21T16:59:32;4.40;;;4.10;;
4676;SDS011;2352;48.180;11.478;2023-08-21T17:02:36;4.50;;;4.10;;
4676;SDS011;2352;48.180;11.478;2023-08-21T17:05:41;4.68;;;4.35;;
4676;SDS011;2352;48.180;11.478;2023-08-21T17:08:44;4.70;;;4.38;;
4676;SDS011;2352;48.180;11.478;2023-08-21T17:11:47;4.97;;;4.40;;
4676;SDS011;2352;48.180;11.478;2023-08-21T17:14:50;7.90;;;5.00;;
4676;SDS011;2352;48.180;11.478;2023-08-21T17:17:54;5.07;;;4.60;;
4676;SDS011;2352;48.180;11.478;2023-08-21T17:20:57;6.65;;;5.00;;
4676;SDS011;2352;48.180;11.478;2023-08-21T17:24:00;5.00;;;4.70;;
4676;SDS011;2352;48.180;11.478;2023-08-21T17:27:03;6.80;;;4.47;;
4676;SDS011;2352;48.180;11.478;2023-08-21T17:30:06;5.05;;;4.65;;
4676;SDS011;2352;48.180;11.478;2023-08-21T17:33:12;4.90;;;4.60;;
4676;SDS011;2352;48.180;11.478;2023-08-21T17:36:15;5.07;;;4.75;;
4676;SDS011;2352;48.180;11.478;2023-08-21T17:39:18;5.20;;;4.90;;
4676;SDS011;2352;48.180;11.478;2023-08-21T17:42:21;5.23;;;4.90;;
4676;SDS011;2352;48.180;11.478;2023-08-21T17:45:23;5.25;;;4.80;;
4676;SDS011;2352;48.180;11.478;2023-08-21T17:48:28;5.18;;;4.80;;
4676;SDS011;2352;48.180;11.478;2023-08-21T17:51:31;4.85;;;4.38;;
4676;SDS011;2352;48.180;11.478;2023-08-21T17:54:34;5.97;;;5.55;;
4676;SDS011;2352;48.180;11.478;2023-08-21T17:57:36;5.53;;;5.20;;
4676;SDS011;2352;48.180;11.478;2023-08-21T18:00:42;4.95;;;4.65;;
4676;SDS011;2352;48.180;11.478;2023-08-21T18:03:47;6.32;;;5.82;;
4676;SDS011;2352;48.180;11.478;2023-08-21T18:06:50;5.82;;;5.47;;
4676;SDS011;2352;48.180;11.478;2023-08-21T18:09:54;6.43;;;5.97;;
4676;SDS011;2352;48.180;11.478;2023-08-21T18:12:56;5.30;;;4.90;;
4676;SDS011;2352;48.180;11.478;2023-08-21T18:16:00;6.50;;;6.00;;
4676;SDS011;2352;48.180;11.478;2023-08-21T18:19:04;6.95;;;6.55;;
4676;SDS011;2352;48.180;11.478;2023-08-21T18:22:08;7.22;;;6.72;;
4676;SDS011;2352;48.180;11.478;2023-08-21T18:25:11;7.10;;;6.60;;
4676;SDS011;2352;48.180;11.478;2023-08-21T18:28:14;6.38;;;5.88;;
4676;SDS011;2352;48.180;11.478;2023-08-21T18:31:18;7.88;;;7.07;;
4676;SDS011;2352;48.180;11.478;2023-08-21T18:34:22;6.72;;;6.32;;
4676;SDS011;2352;48.180;11.478;2023-08-21T18:37:25;7.32;;;6.75;;
4676;SDS011;2352;48.180;11.478;2023-08-21T18:40:29;5.93;;;5.43;;
4676;SDS011;2352;48.180;11.478;2023-08-21T18:43:31;6.65;;;5.97;;
4676;SDS011;2352;48.180;11.478;2023-08-21T18:46:34;5.90;;;5.30;;